sensor_id;sensor_type;location;lat;lon;timestamp;P1;durP1;ratioP1;P2;durP2;ratioP2
62863;SDS011;48954;59.950;11.014;2023-04-24T00:00:15;3.10;;;1.70;;
62863;SDS011;48954;59.950;11.014;2023-04-24T00:03:01;3.80;;;2.00;;
62863;SDS011;48954;59.950;11.014;2023-04-24T00:05:28;3.90;;;1.70;;
62863;SDS011;48954;59.950;11.014;2023-04-24T00:07:53;3.30;;;2.00;;
62863;SDS011;48954;59.950;11.014;2023-04-24T00:10:20;2.50;;;1.50;;
62863;SDS011;48954;59.950;11.014;2023-04-24T00:12:46;2.80;;;1.50;;
62863;SDS011;48954;59.950;11.014;2023-04-24T00:15:11;2.60;;;1.40;;
62863;SDS011;48954;59.950;11.014;2023-04-24T00:17:37;2.20;;;1.40;;
62863;SDS011;48954;59.950;11.014;2023-04-24T00:20:04;3.50;;;1.70;;
62863;SDS011;48954;59.950;11.014;2023-04-24T00:22:31;4.10;;;2.00;;
62863;SDS011;48954;59.950;11.014;2023-04-24T00:24:57;3.00;;;1.70;;
62863;SDS011;48954;59.950;11.014;2023-04-24T00:27:23;2.50;;;1.30;;
62863;SDS011;48954;59.950;11.014;2023-04-24T00:29:49;3.20;;;1.70;;
62863;SDS011;48954;59.950;11.014;2023-04-24T00:32:15;3.80;;;2.10;;
62863;SDS011;48954;59.950;11.014;2023-04-24T00:34:41;3.30;;;1.70;;
62863;SDS011;48954;59.950;11.014;2023-04-24T00:37:07;1.90;;;0.90;;
62863;SDS011;48954;59.950;11.014;2023-04-24T00:39:33;2.00;;;1.30;;
62863;SDS011;48954;59.950;11.014;2023-04-24T00:41:59;2.30;;;1.50;;
62863;SDS011;48954;59.950;11.014;2023-04-24T00:44:25;2.60;;;1.50;;
62863;SDS011;48954;59.950;11.014;2023-04-24T00:46:50;4.50;;;1.60;;
62863;SDS011;48954;59.950;11.014;2023-04-24T00:49:16;3.00;;;1.60;;
62863;SDS011;48954;59.950;11.014;2023-04-24T00:51:43;1.90;;;0.90;;
62863;SDS011;48954;59.950;11.014;2023-04-24T00:54:09;2.10;;;1.00;;
62863;SDS011;48954;59.950;11.014;2023-04-24T00:56:35;3.20;;;1.80;;
62863;SDS011;48954;59.950;11.014;2023-04-24T00:59:01;2.20;;;1.20;;
62863;SDS011;48954;59.950;11.014;2023-04-24T01:01:27;2.40;;;1.30;;
62863;SDS011;48954;59.950;11.014;2023-04-24T01:03:52;2.60;;;1.60;;
62863;SDS011;48954;59.950;11.014;2023-04-24T01:06:19;2.70;;;1.40;;
62863;SDS011;48954;59.950;11.014;2023-04-24T01:08:46;2.20;;;1.30;;
62863;SDS011;48954;59.950;11.014;2023-04-24T01:11:13;2.10;;;1.00;;
62863;SDS011;48954;59.950;11.014;2023-04-24T01:13:39;2.70;;;1.40;;
62863;SDS011;48954;59.950;11.014;2023-04-24T01:16:05;2.10;;;1.10;;
62863;SDS011;48954;59.950;11.014;2023-04-24T01:18:31;3.00;;;1.60;;
62863;SDS011;48954;59.950;11.014;2023-04-24T01:20:58;2.30;;;1.20;;
62863;SDS011;48954;59.950;11.014;2023-04-24T01:23:25;1.50;;;0.80;;
62863;SDS011;48954;59.950;11.014;2023-04-24T01:25:52;3.50;;;1.50;;
62863;SDS011;48954;59.950;11.014;2023-04-24T01:28:18;1.60;;;0.90;;
62863;SDS011;48954;59.950;11.014;2023-04-24T01:30:44;2.40;;;1.10;;
62863;SDS011;48954;59.950;11.014;2023-04-24T01:33:10;2.00;;;1.00;;
62863;SDS011;48954;59.950;11.014;2023-04-24T01:35:36;3.00;;;1.40;;
62863;SDS011;48954;59.950;11.014;2023-04-24T01:38:03;1.70;;;1.00;;
62863;SDS011;48954;59.950;11.014;2023-04-24T01:40:30;2.60;;;1.20;;
62863;SDS011;48954;59.950;11.014;2023-04-24T01:42:57;1.90;;;1.10;;
62863;SDS011;48954;59.950;11.014;2023-04-24T01:45:23;3.60;;;1.70;;
62863;SDS011;48954;59.950;11.014;2023-04-24T01:47:49;2.50;;;1.10;;
62863;SDS011;48954;59.950;11.014;2023-04-24T01:50:15;2.80;;;1.30;;
62863;SDS011;48954;59.950;11.014;2023-04-24T01:52:41;2.10;;;1.20;;
62863;SDS011;48954;59.950;11.014;2023-04-24T01:55:07;4.10;;;0.80;;
62863;SDS011;48954;59.950;11.014;2023-04-24T01:57:33;2.30;;;1.20;;
62863;SDS011;48954;59.950;11.014;2023-04-24T01:59:59;1.70;;;0.80;;
62863;SDS011;48954;59.950;11.014;2023-04-24T02:02:25;1.90;;;1.00;;
62863;SDS011;48954;59.950;11.014;2023-04-24T02:04:51;2.30;;;1.10;;
62863;SDS011;48954;59.950;11.014;2023-04-24T02:07:16;3.50;;;1.50;;
62863;SDS011;48954;59.950;11.014;2023-04-24T02:09:42;2.60;;;1.40;;
62863;SDS011;48954;59.950;11.014;2023-04-24T02:12:08;2.70;;;1.10;;
62863;SDS011;48954;59.950;11.014;2023-04-24T02:14:34;2.20;;;1.00;;
62863;SDS011;48954;59.950;11.014;2023-04-24T02:16:59;1.60;;;0.90;;
62863;SDS011;48954;59.950;11.014;2023-04-24T02:19:25;2.30;;;1.10;;
62863;SDS011;48954;59.950;11.014;2023-04-24T02:21:51;2.30;;;1.00;;
62863;SDS011;48954;59.950;11.014;2023-04-24T02:24:17;2.60;;;1.00;;
62863;SDS011;48954;59.950;11.014;2023-04-24T02:26:43;1.90;;;1.20;;
62863;SDS011;48954;59.950;11.014;2023-04-24T02:29:09;2.30;;;1.00;;
62863;SDS011;48954;59.950;11.014;2023-04-24T02:31:34;2.40;;;1.20;;
62863;SDS011;48954;59.950;11.014;2023-04-24T02:34:00;2.30;;;1.10;;
62863;SDS011;48954;59.950;11.014;2023-04-24T02:36:26;2.30;;;1.10;;
62863;SDS011;48954;59.950;11.014;2023-04-24T02:38:52;2.50;;;1.20;;
62863;SDS011;48954;59.950;11.014;2023-04-24T02:41:18;2.40;;;1.10;;
62863;SDS011;48954;59.950;11.014;2023-04-24T02:43:43;2.60;;;1.20;;
62863;SDS011;48954;59.950;11.014;2023-04-24T02:46:09;1.70;;;0.90;;
62863;SDS011;48954;59.950;11.014;2023-04-24T02:48:35;1.80;;;0.60;;
62863;SDS011;48954;59.950;11.014;2023-04-24T02:51:00;1.70;;;0.80;;
62863;SDS011;48954;59.950;11.014;2023-04-24T02:53:26;1.50;;;0.80;;
62863;SDS011;48954;59.950;11.014;2023-04-24T02:55:52;2.60;;;1.20;;
62863;SDS011;48954;59.950;11.014;2023-04-24T02:58:18;2.50;;;1.10;;
62863;SDS011;48954;59.950;11.014;2023-04-24T03:00:44;2.10;;;0.80;;
62863;SDS011;48954;59.950;11.014;2023-04-24T03:03:09;1.90;;;0.90;;
62863;SDS011;48954;59.950;11.014;2023-04-24T03:05:35;2.30;;;0.90;;
62863;SDS011;48954;59.950;11.014;2023-04-24T03:08:01;1.20;;;0.60;;
62863;SDS011;48954;59.950;11.014;2023-04-24T03:10:27;1.90;;;1.00;;
62863;SDS011;48954;59.950;11.014;2023-04-24T03:12:52;1.80;;;1.00;;
62863;SDS011;48954;59.950;11.014;2023-04-24T03:15:18;1.80;;;0.90;;
62863;SDS011;48954;59.950;11.014;2023-04-24T03:17:44;1.40;;;0.80;;
62863;SDS011;48954;59.950;11.014;2023-04-24T03:20:10;2.20;;;0.70;;
62863;SDS011;48954;59.950;11.014;2023-04-24T03:22:35;2.00;;;0.80;;
62863;SDS011;48954;59.950;11.014;2023-04-24T03:25:01;1.90;;;1.00;;
62863;SDS011;48954;59.950;11.014;2023-04-24T03:27:28;1.60;;;0.90;;
62863;SDS011;48954;59.950;11.014;2023-04-24T03:29:53;2.30;;;1.00;;
62863;SDS011;48954;59.950;11.014;2023-04-24T03:32:19;1.30;;;0.60;;
62863;SDS011;48954;59.950;11.014;2023-04-24T03:34:45;2.10;;;1.00;;
62863;SDS011;48954;59.950;11.014;2023-04-24T03:37:11;1.00;;;0.50;;
62863;SDS011;48954;59.950;11.014;2023-04-24T03:39:36;1.40;;;0.70;;
62863;SDS011;48954;59.950;11.014;2023-04-24T03:42:02;1.90;;;0.90;;
62863;SDS011;48954;59.950;11.014;2023-04-24T03:44:28;1.80;;;1.10;;
62863;SDS011;48954;59.950;11.014;2023-04-24T03:46:54;1.40;;;0.90;;
62863;SDS011;48954;59.950;11.014;2023-04-24T03:49:20;1.90;;;0.90;;
62863;SDS011;48954;59.950;11.014;2023-04-24T03:51:45;1.80;;;0.80;;
62863;SDS011;48954;59.950;11.014;2023-04-24T03:54:11;1.70;;;0.80;;
62863;SDS011;48954;59.950;11.014;2023-04-24T03:56:37;1.90;;;1.00;;
62863;SDS011;48954;59.950;11.014;2023-04-24T03:59:03;1.50;;;0.80;;
62863;SDS011;48954;59.950;11.014;2023-04-24T04:01:28;1.30;;;0.70;;
62863;SDS011;48954;59.950;11.014;2023-04-24T04:03:54;1.60;;;0.80;;
62863;SDS011;48954;59.950;11.014;2023-04-24T04:06:20;1.10;;;0.60;;
62863;SDS011;48954;59.950;11.014;2023-04-24T04:08:46;0.70;;;0.40;;
62863;SDS011;48954;59.950;11.014;2023-04-24T04:11:11;1.10;;;0.50;;
62863;SDS011;48954;59.950;11.014;2023-04-24T04:13:37;1.60;;;0.80;;
62863;SDS011;48954;59.950;11.014;2023-04-24T04:16:03;1.50;;;1.00;;
62863;SDS011;48954;59.950;11.014;2023-04-24T04:18:29;1.40;;;0.70;;
62863;SDS011;48954;59.950;11.014;2023-04-24T04:20:55;1.50;;;0.80;;
62863;SDS011;48954;59.950;11.014;2023-04-24T04:23:20;1.20;;;0.70;;
62863;SDS011;48954;59.950;11.014;2023-04-24T04:25:46;1.40;;;0.70;;
62863;SDS011;48954;59.950;11.014;2023-04-24T04:28:12;1.10;;;0.60;;
62863;SDS011;48954;59.950;11.014;2023-04-24T04:30:37;1.40;;;0.70;;
62863;SDS011;48954;59.950;11.014;2023-04-24T04:33:03;0.90;;;0.60;;
62863;SDS011;48954;59.950;11.014;2023-04-24T04:35:29;1.30;;;0.70;;
62863;SDS011;48954;59.950;11.014;2023-04-24T04:37:55;1.10;;;0.60;;
62863;SDS011;48954;59.950;11.014;2023-04-24T04:40:21;1.90;;;0.60;;
62863;SDS011;48954;59.950;11.014;2023-04-24T04:42:46;1.00;;;0.30;;
62863;SDS011;48954;59.950;11.014;2023-04-24T04:45:12;1.50;;;0.70;;
62863;SDS011;48954;59.950;11.014;2023-04-24T04:47:38;1.80;;;0.80;;
62863;SDS011;48954;59.950;11.014;2023-04-24T04:50:04;0.90;;;0.60;;
62863;SDS011;48954;59.950;11.014;2023-04-24T04:52:30;0.90;;;0.50;;
62863;SDS011;48954;59.950;11.014;2023-04-24T04:54:56;1.20;;;0.80;;
62863;SDS011;48954;59.950;11.014;2023-04-24T04:57:22;1.20;;;0.70;;
62863;SDS011;48954;59.950;11.014;2023-04-24T04:59:48;1.00;;;0.60;;
62863;SDS011;48954;59.950;11.014;2023-04-24T05:02:14;1.20;;;0.60;;
62863;SDS011;48954;59.950;11.014;2023-04-24T05:04:40;1.20;;;0.60;;
62863;SDS011;48954;59.950;11.014;2023-04-24T05:07:05;1.40;;;0.70;;
62863;SDS011;48954;59.950;11.014;2023-04-24T05:09:31;1.00;;;0.50;;
62863;SDS011;48954;59.950;11.014;2023-04-24T05:11:57;0.70;;;0.40;;
62863;SDS011;48954;59.950;11.014;2023-04-24T05:14:23;1.50;;;0.80;;
62863;SDS011;48954;59.950;11.014;2023-04-24T05:16:49;1.40;;;0.80;;
62863;SDS011;48954;59.950;11.014;2023-04-24T05:19:14;2.40;;;1.10;;
62863;SDS011;48954;59.950;11.014;2023-04-24T05:21:40;2.80;;;0.70;;
62863;SDS011;48954;59.950;11.014;2023-04-24T05:24:06;0.90;;;0.50;;
62863;SDS011;48954;59.950;11.014;2023-04-24T05:26:32;1.10;;;0.60;;
62863;SDS011;48954;59.950;11.014;2023-04-24T05:28:58;2.90;;;0.90;;
62863;SDS011;48954;59.950;11.014;2023-04-24T05:31:24;1.60;;;0.70;;
62863;SDS011;48954;59.950;11.014;2023-04-24T05:33:52;1.40;;;0.80;;
62863;SDS011;48954;59.950;11.014;2023-04-24T05:36:18;1.20;;;0.50;;
62863;SDS011;48954;59.950;11.014;2023-04-24T05:38:44;0.90;;;0.40;;
62863;SDS011;48954;59.950;11.014;2023-04-24T05:41:11;2.10;;;0.80;;
62863;SDS011;48954;59.950;11.014;2023-04-24T05:43:38;1.10;;;0.60;;
62863;SDS011;48954;59.950;11.014;2023-04-24T05:46:04;1.10;;;0.60;;
62863;SDS011;48954;59.950;11.014;2023-04-24T05:48:30;1.00;;;0.50;;
62863;SDS011;48954;59.950;11.014;2023-04-24T05:50:56;1.00;;;0.50;;
62863;SDS011;48954;59.950;11.014;2023-04-24T05:53:24;1.70;;;0.90;;
62863;SDS011;48954;59.950;11.014;2023-04-24T05:55:50;1.00;;;0.60;;
62863;SDS011;48954;59.950;11.014;2023-04-24T05:58:15;1.10;;;0.60;;
62863;SDS011;48954;59.950;11.014;2023-04-24T06:00:41;2.00;;;1.00;;
62863;SDS011;48954;59.950;11.014;2023-04-24T06:03:07;2.30;;;0.90;;
62863;SDS011;48954;59.950;11.014;2023-04-24T06:05:33;1.40;;;0.70;;
62863;SDS011;48954;59.950;11.014;2023-04-24T06:07:58;0.80;;;0.60;;
62863;SDS011;48954;59.950;11.014;2023-04-24T06:10:24;0.90;;;0.60;;
62863;SDS011;48954;59.950;11.014;2023-04-24T06:12:50;1.70;;;0.60;;
62863;SDS011;48954;59.950;11.014;2023-04-24T06:15:16;2.00;;;0.60;;
62863;SDS011;48954;59.950;11.014;2023-04-24T06:17:42;1.40;;;0.90;;
62863;SDS011;48954;59.950;11.014;2023-04-24T06:20:08;1.30;;;0.90;;
62863;SDS011;48954;59.950;11.014;2023-04-24T06:22:34;0.80;;;0.60;;
62863;SDS011;48954;59.950;11.014;2023-04-24T06:24:59;0.80;;;0.50;;
62863;SDS011;48954;59.950;11.014;2023-04-24T06:27:30;1.40;;;0.50;;
62863;SDS011;48954;59.950;11.014;2023-04-24T06:29:56;0.70;;;0.40;;
62863;SDS011;48954;59.950;11.014;2023-04-24T06:32:22;1.10;;;0.60;;
62863;SDS011;48954;59.950;11.014;2023-04-24T06:34:52;1.20;;;0.70;;
62863;SDS011;48954;59.950;11.014;2023-04-24T06:37:18;0.90;;;0.50;;
62863;SDS011;48954;59.950;11.014;2023-04-24T06:39:45;1.20;;;0.80;;
62863;SDS011;48954;59.950;11.014;2023-04-24T06:42:11;1.30;;;0.50;;
62863;SDS011;48954;59.950;11.014;2023-04-24T06:44:37;1.10;;;0.60;;
62863;SDS011;48954;59.950;11.014;2023-04-24T06:47:03;1.00;;;0.60;;
62863;SDS011;48954;59.950;11.014;2023-04-24T06:49:29;1.40;;;0.60;;
62863;SDS011;48954;59.950;11.014;2023-04-24T06:51:56;1.00;;;0.40;;
62863;SDS011;48954;59.950;11.014;2023-04-24T06:54:22;1.80;;;0.60;;
62863;SDS011;48954;59.950;11.014;2023-04-24T06:56:48;3.30;;;1.30;;
62863;SDS011;48954;59.950;11.014;2023-04-24T06:59:14;2.20;;;0.80;;
62863;SDS011;48954;59.950;11.014;2023-04-24T07:01:40;1.20;;;0.80;;
62863;SDS011;48954;59.950;11.014;2023-04-24T07:04:05;0.80;;;0.50;;
62863;SDS011;48954;59.950;11.014;2023-04-24T07:06:31;0.70;;;0.50;;
62863;SDS011;48954;59.950;11.014;2023-04-24T07:08:57;1.30;;;0.60;;
62863;SDS011;48954;59.950;11.014;2023-04-24T07:11:23;1.30;;;0.70;;
62863;SDS011;48954;59.950;11.014;2023-04-24T07:13:49;0.80;;;0.30;;
62863;SDS011;48954;59.950;11.014;2023-04-24T07:16:15;0.60;;;0.50;;
62863;SDS011;48954;59.950;11.014;2023-04-24T07:18:40;1.30;;;0.30;;
62863;SDS011;48954;59.950;11.014;2023-04-24T07:21:06;1.30;;;0.60;;
62863;SDS011;48954;59.950;11.014;2023-04-24T07:23:32;0.80;;;0.50;;
62863;SDS011;48954;59.950;11.014;2023-04-24T07:25:58;1.40;;;0.60;;
62863;SDS011;48954;59.950;11.014;2023-04-24T07:28:23;1.80;;;0.70;;
62863;SDS011;48954;59.950;11.014;2023-04-24T07:30:49;1.30;;;0.70;;
62863;SDS011;48954;59.950;11.014;2023-04-24T07:33:17;1.50;;;0.70;;
62863;SDS011;48954;59.950;11.014;2023-04-24T07:35:43;1.20;;;0.70;;
62863;SDS011;48954;59.950;11.014;2023-04-24T07:38:09;1.50;;;0.80;;
62863;SDS011;48954;59.950;11.014;2023-04-24T07:40:36;1.50;;;0.70;;
62863;SDS011;48954;59.950;11.014;2023-04-24T07:43:02;1.80;;;0.60;;
62863;SDS011;48954;59.950;11.014;2023-04-24T07:45:27;1.40;;;0.60;;
62863;SDS011;48954;59.950;11.014;2023-04-24T07:47:53;0.50;;;0.30;;
62863;SDS011;48954;59.950;11.014;2023-04-24T07:50:19;0.70;;;0.40;;
62863;SDS011;48954;59.950;11.014;2023-04-24T07:52:45;0.50;;;0.40;;
62863;SDS011;48954;59.950;11.014;2023-04-24T07:55:11;1.30;;;0.70;;
62863;SDS011;48954;59.950;11.014;2023-04-24T07:57:37;1.30;;;0.60;;
62863;SDS011;48954;59.950;11.014;2023-04-24T08:00:03;0.90;;;0.60;;
62863;SDS011;48954;59.950;11.014;2023-04-24T08:02:30;0.50;;;0.30;;
62863;SDS011;48954;59.950;11.014;2023-04-24T08:04:56;0.90;;;0.40;;
62863;SDS011;48954;59.950;11.014;2023-04-24T08:07:22;0.70;;;0.50;;
62863;SDS011;48954;59.950;11.014;2023-04-24T08:09:49;1.50;;;0.50;;
62863;SDS011;48954;59.950;11.014;2023-04-24T08:12:14;1.80;;;0.70;;
62863;SDS011;48954;59.950;11.014;2023-04-24T08:14:40;1.20;;;0.40;;
62863;SDS011;48954;59.950;11.014;2023-04-24T08:17:06;0.80;;;0.50;;
62863;SDS011;48954;59.950;11.014;2023-04-24T08:19:32;0.50;;;0.30;;
62863;SDS011;48954;59.950;11.014;2023-04-24T08:22:00;1.20;;;0.60;;
62863;SDS011;48954;59.950;11.014;2023-04-24T08:24:26;1.30;;;0.60;;
62863;SDS011;48954;59.950;11.014;2023-04-24T08:26:52;0.50;;;0.40;;
62863;SDS011;48954;59.950;11.014;2023-04-24T08:29:18;1.70;;;0.90;;
62863;SDS011;48954;59.950;11.014;2023-04-24T08:31:43;0.90;;;0.50;;
62863;SDS011;48954;59.950;11.014;2023-04-24T08:34:09;0.80;;;0.40;;
62863;SDS011;48954;59.950;11.014;2023-04-24T08:36:35;0.90;;;0.40;;
62863;SDS011;48954;59.950;11.014;2023-04-24T08:39:03;0.40;;;0.30;;
62863;SDS011;48954;59.950;11.014;2023-04-24T08:41:29;1.00;;;0.40;;
62863;SDS011;48954;59.950;11.014;2023-04-24T08:43:56;0.70;;;0.50;;
62863;SDS011;48954;59.950;11.014;2023-04-24T08:46:22;0.50;;;0.30;;
62863;SDS011;48954;59.950;11.014;2023-04-24T08:48:50;0.80;;;0.50;;
62863;SDS011;48954;59.950;11.014;2023-04-24T08:51:17;0.70;;;0.40;;
62863;SDS011;48954;59.950;11.014;2023-04-24T08:53:43;0.60;;;0.40;;
62863;SDS011;48954;59.950;11.014;2023-04-24T08:56:11;1.80;;;0.70;;
62863;SDS011;48954;59.950;11.014;2023-04-24T08:58:36;0.90;;;0.50;;
62863;SDS011;48954;59.950;11.014;2023-04-24T09:01:03;1.60;;;0.60;;
62863;SDS011;48954;59.950;11.014;2023-04-24T09:03:30;1.00;;;0.60;;
62863;SDS011;48954;59.950;11.014;2023-04-24T09:05:58;1.30;;;0.70;;
62863;SDS011;48954;59.950;11.014;2023-04-24T09:08:25;2.10;;;0.80;;
62863;SDS011;48954;59.950;11.014;2023-04-24T09:10:53;1.30;;;0.70;;
62863;SDS011;48954;59.950;11.014;2023-04-24T09:13:22;2.10;;;0.80;;
62863;SDS011;48954;59.950;11.014;2023-04-24T09:15:47;0.90;;;0.50;;
62863;SDS011;48954;59.950;11.014;2023-04-24T09:18:13;2.10;;;0.60;;
62863;SDS011;48954;59.950;11.014;2023-04-24T09:23:34;1.40;;;0.70;;
62863;SDS011;48954;59.950;11.014;2023-04-24T09:26:00;1.20;;;0.50;;
62863;SDS011;48954;59.950;11.014;2023-04-24T09:28:34;1.00;;;0.50;;
62863;SDS011;48954;59.950;11.014;2023-04-24T09:31:05;1.20;;;0.70;;
62863;SDS011;48954;59.950;11.014;2023-04-24T09:33:39;1.50;;;0.80;;
62863;SDS011;48954;59.950;11.014;2023-04-24T09:36:05;1.00;;;0.60;;
62863;SDS011;48954;59.950;11.014;2023-04-24T09:38:32;1.20;;;0.70;;
62863;SDS011;48954;59.950;11.014;2023-04-24T09:41:05;0.60;;;0.40;;
62863;SDS011;48954;59.950;11.014;2023-04-24T09:43:33;1.00;;;0.50;;
62863;SDS011;48954;59.950;11.014;2023-04-24T09:45:59;1.10;;;0.70;;
62863;SDS011;48954;59.950;11.014;2023-04-24T09:48:33;1.00;;;0.60;;
62863;SDS011;48954;59.950;11.014;2023-04-24T09:51:01;0.80;;;0.40;;
62863;SDS011;48954;59.950;11.014;2023-04-24T09:53:28;2.20;;;0.80;;
62863;SDS011;48954;59.950;11.014;2023-04-24T09:55:55;1.40;;;0.60;;
62863;SDS011;48954;59.950;11.014;2023-04-24T09:58:25;1.90;;;0.70;;
62863;SDS011;48954;59.950;11.014;2023-04-24T10:00:53;1.60;;;0.50;;
62863;SDS011;48954;59.950;11.014;2023-04-24T10:03:19;1.00;;;0.50;;
62863;SDS011;48954;59.950;11.014;2023-04-24T10:05:45;0.70;;;0.50;;
62863;SDS011;48954;59.950;11.014;2023-04-24T10:08:12;1.60;;;0.70;;
62863;SDS011;48954;59.950;11.014;2023-04-24T10:10:42;2.20;;;0.70;;
62863;SDS011;48954;59.950;11.014;2023-04-24T10:13:09;1.00;;;0.60;;
62863;SDS011;48954;59.950;11.014;2023-04-24T10:15:36;1.00;;;0.60;;
62863;SDS011;48954;59.950;11.014;2023-04-24T10:18:04;0.80;;;0.50;;
62863;SDS011;48954;59.950;11.014;2023-04-24T10:20:30;0.80;;;0.40;;
62863;SDS011;48954;59.950;11.014;2023-04-24T10:22:57;1.30;;;0.60;;
62863;SDS011;48954;59.950;11.014;2023-04-24T10:25:25;2.10;;;1.00;;
62863;SDS011;48954;59.950;11.014;2023-04-24T10:27:53;3.70;;;0.70;;
62863;SDS011;48954;59.950;11.014;2023-04-24T10:30:20;1.00;;;0.40;;
62863;SDS011;48954;59.950;11.014;2023-04-24T10:32:46;1.60;;;0.80;;
62863;SDS011;48954;59.950;11.014;2023-04-24T10:35:12;1.50;;;0.80;;
62863;SDS011;48954;59.950;11.014;2023-04-24T10:37:43;0.90;;;0.50;;
62863;SDS011;48954;59.950;11.014;2023-04-24T10:40:12;2.60;;;1.20;;
62863;SDS011;48954;59.950;11.014;2023-04-24T10:42:43;2.30;;;0.60;;
62863;SDS011;48954;59.950;11.014;2023-04-24T10:45:16;1.90;;;0.90;;
62863;SDS011;48954;59.950;11.014;2023-04-24T10:47:51;0.90;;;0.40;;
62863;SDS011;48954;59.950;11.014;2023-04-24T10:50:47;1.20;;;0.50;;
62863;SDS011;48954;59.950;11.014;2023-04-24T10:53:18;1.10;;;0.80;;
62863;SDS011;48954;59.950;11.014;2023-04-24T10:55:49;1.00;;;0.60;;
62863;SDS011;48954;59.950;11.014;2023-04-24T10:58:23;1.90;;;1.00;;
62863;SDS011;48954;59.950;11.014;2023-04-24T11:00:59;0.70;;;0.50;;
62863;SDS011;48954;59.950;11.014;2023-04-24T11:03:26;2.70;;;0.90;;
62863;SDS011;48954;59.950;11.014;2023-04-24T11:05:55;2.00;;;0.80;;
62863;SDS011;48954;59.950;11.014;2023-04-24T11:11:09;1.50;;;0.60;;
62863;SDS011;48954;59.950;11.014;2023-04-24T11:21:38;1.20;;;0.60;;
62863;SDS011;48954;59.950;11.014;2023-04-24T11:29:49;0.90;;;0.40;;
62863;SDS011;48954;59.950;11.014;2023-04-24T11:34:51;1.20;;;0.60;;
62863;SDS011;48954;59.950;11.014;2023-04-24T11:37:21;1.50;;;0.70;;
62863;SDS011;48954;59.950;11.014;2023-04-24T11:39:54;1.50;;;0.70;;
62863;SDS011;48954;59.950;11.014;2023-04-24T11:42:22;1.70;;;0.80;;
62863;SDS011;48954;59.950;11.014;2023-04-24T11:44:47;1.80;;;0.90;;
62863;SDS011;48954;59.950;11.014;2023-04-24T11:47:15;1.80;;;0.90;;
62863;SDS011;48954;59.950;11.014;2023-04-24T11:49:41;1.60;;;1.00;;
62863;SDS011;48954;59.950;11.014;2023-04-24T11:52:07;1.70;;;1.00;;
62863;SDS011;48954;59.950;11.014;2023-04-24T11:54:33;2.40;;;1.50;;
62863;SDS011;48954;59.950;11.014;2023-04-24T11:56:59;1.50;;;0.80;;
62863;SDS011;48954;59.950;11.014;2023-04-24T11:59:29;2.50;;;1.40;;
62863;SDS011;48954;59.950;11.014;2023-04-24T12:01:55;2.00;;;1.30;;
62863;SDS011;48954;59.950;11.014;2023-04-24T12:04:21;1.70;;;1.00;;
62863;SDS011;48954;59.950;11.014;2023-04-24T12:06:59;1.60;;;1.00;;
62863;SDS011;48954;59.950;11.014;2023-04-24T12:09:25;2.60;;;1.20;;
62863;SDS011;48954;59.950;11.014;2023-04-24T12:11:55;2.40;;;0.90;;
62863;SDS011;48954;59.950;11.014;2023-04-24T12:14:21;1.40;;;0.80;;
62863;SDS011;48954;59.950;11.014;2023-04-24T12:16:48;2.30;;;0.90;;
62863;SDS011;48954;59.950;11.014;2023-04-24T12:19:20;1.70;;;1.00;;
62863;SDS011;48954;59.950;11.014;2023-04-24T12:22:03;1.50;;;0.80;;
62863;SDS011;48954;59.950;11.014;2023-04-24T12:24:30;2.50;;;1.10;;
62863;SDS011;48954;59.950;11.014;2023-04-24T12:26:57;1.80;;;0.90;;
62863;SDS011;48954;59.950;11.014;2023-04-24T12:29:23;1.40;;;0.80;;
62863;SDS011;48954;59.950;11.014;2023-04-24T12:31:50;1.60;;;0.70;;
62863;SDS011;48954;59.950;11.014;2023-04-24T12:34:17;1.50;;;0.80;;
62863;SDS011;48954;59.950;11.014;2023-04-24T12:36:44;2.10;;;1.20;;
62863;SDS011;48954;59.950;11.014;2023-04-24T12:39:17;1.90;;;1.00;;
62863;SDS011;48954;59.950;11.014;2023-04-24T12:41:50;1.80;;;0.90;;
62863;SDS011;48954;59.950;11.014;2023-04-24T12:44:32;1.80;;;1.00;;
62863;SDS011;48954;59.950;11.014;2023-04-24T12:46:58;1.80;;;1.00;;
62863;SDS011;48954;59.950;11.014;2023-04-24T12:49:24;1.60;;;0.80;;
62863;SDS011;48954;59.950;11.014;2023-04-24T12:51:50;2.00;;;1.20;;
62863;SDS011;48954;59.950;11.014;2023-04-24T12:54:16;2.00;;;1.00;;
62863;SDS011;48954;59.950;11.014;2023-04-24T12:56:41;2.20;;;1.20;;
62863;SDS011;48954;59.950;11.014;2023-04-24T12:59:07;1.70;;;0.90;;
62863;SDS011;48954;59.950;11.014;2023-04-24T13:01:33;2.20;;;1.20;;
62863;SDS011;48954;59.950;11.014;2023-04-24T13:03:59;1.50;;;1.00;;
62863;SDS011;48954;59.950;11.014;2023-04-24T13:06:24;2.70;;;1.30;;
62863;SDS011;48954;59.950;11.014;2023-04-24T13:08:50;1.90;;;1.00;;
62863;SDS011;48954;59.950;11.014;2023-04-24T13:11:16;2.80;;;1.00;;
62863;SDS011;48954;59.950;11.014;2023-04-24T13:13:41;2.70;;;0.90;;
62863;SDS011;48954;59.950;11.014;2023-04-24T13:16:07;2.00;;;0.90;;
62863;SDS011;48954;59.950;11.014;2023-04-24T13:18:33;2.10;;;0.70;;
62863;SDS011;48954;59.950;11.014;2023-04-24T13:20:59;1.30;;;0.80;;
62863;SDS011;48954;59.950;11.014;2023-04-24T13:23:25;1.60;;;1.10;;
62863;SDS011;48954;59.950;11.014;2023-04-24T13:25:52;1.60;;;1.00;;
62863;SDS011;48954;59.950;11.014;2023-04-24T13:28:18;1.50;;;0.90;;
62863;SDS011;48954;59.950;11.014;2023-04-24T13:30:43;2.40;;;0.90;;
62863;SDS011;48954;59.950;11.014;2023-04-24T13:33:09;1.50;;;0.70;;
62863;SDS011;48954;59.950;11.014;2023-04-24T13:35:35;1.50;;;0.80;;
62863;SDS011;48954;59.950;11.014;2023-04-24T13:38:01;1.80;;;0.80;;
62863;SDS011;48954;59.950;11.014;2023-04-24T13:40:27;2.10;;;0.90;;
62863;SDS011;48954;59.950;11.014;2023-04-24T13:42:53;1.50;;;0.80;;
62863;SDS011;48954;59.950;11.014;2023-04-24T13:45:18;1.30;;;0.60;;
62863;SDS011;48954;59.950;11.014;2023-04-24T13:47:44;1.90;;;1.00;;
62863;SDS011;48954;59.950;11.014;2023-04-24T13:50:10;1.10;;;0.70;;
62863;SDS011;48954;59.950;11.014;2023-04-24T13:52:36;1.60;;;0.80;;
62863;SDS011;48954;59.950;11.014;2023-04-24T13:55:01;1.20;;;0.70;;
62863;SDS011;48954;59.950;11.014;2023-04-24T13:57:27;5.20;;;1.00;;
62863;SDS011;48954;59.950;11.014;2023-04-24T13:59:53;2.00;;;1.00;;
62863;SDS011;48954;59.950;11.014;2023-04-24T14:02:19;1.50;;;0.70;;
62863;SDS011;48954;59.950;11.014;2023-04-24T14:04:45;2.00;;;0.90;;
62863;SDS011;48954;59.950;11.014;2023-04-24T14:07:10;1.80;;;1.00;;
62863;SDS011;48954;59.950;11.014;2023-04-24T14:09:36;1.40;;;0.70;;
62863;SDS011;48954;59.950;11.014;2023-04-24T14:12:02;2.10;;;0.70;;
62863;SDS011;48954;59.950;11.014;2023-04-24T14:14:28;2.00;;;1.10;;
62863;SDS011;48954;59.950;11.014;2023-04-24T14:16:53;1.60;;;0.90;;
62863;SDS011;48954;59.950;11.014;2023-04-24T14:19:19;1.60;;;0.80;;
62863;SDS011;48954;59.950;11.014;2023-04-24T14:21:45;2.10;;;1.30;;
62863;SDS011;48954;59.950;11.014;2023-04-24T14:24:11;2.10;;;1.20;;
62863;SDS011;48954;59.950;11.014;2023-04-24T14:26:36;1.90;;;1.00;;
62863;SDS011;48954;59.950;11.014;2023-04-24T14:29:02;1.60;;;1.00;;
62863;SDS011;48954;59.950;11.014;2023-04-24T14:31:28;1.50;;;1.00;;
62863;SDS011;48954;59.950;11.014;2023-04-24T14:33:54;1.60;;;1.00;;
62863;SDS011;48954;59.950;11.014;2023-04-24T14:36:20;1.30;;;0.80;;
62863;SDS011;48954;59.950;11.014;2023-04-24T14:38:45;1.50;;;1.00;;
62863;SDS011;48954;59.950;11.014;2023-04-24T14:41:11;1.50;;;0.80;;
62863;SDS011;48954;59.950;11.014;2023-04-24T14:43:37;1.40;;;0.70;;
62863;SDS011;48954;59.950;11.014;2023-04-24T14:46:03;1.60;;;1.20;;
62863;SDS011;48954;59.950;11.014;2023-04-24T14:48:29;1.30;;;0.80;;
62863;SDS011;48954;59.950;11.014;2023-04-24T14:50:55;0.80;;;0.60;;